Time;durP1;ratioP1;P1;durP2;ratioP2;P2;SDS_P1;SDS_P2;PMS_P1;PMS_P2;Temp;Humidity;BMP_temperature;BMP_pressure;BME280_temperature;BME280_humidity;BME280_pressure;Samples;Min_cycle;Max_cycle;Signal;HPM_P1;HPM_P2
2023/01/29 01:37:41;;;;;;;15.10;8.40;;;;;;;-0.06;83.89;100756.08;103486;1286;612304;-85
2023/01/29 01:40:16;;;;;;;12.00;8.10;;;;;;;0.10;83.30;100759.61;105883;1266;111799;-83
2023/01/29 01:42:50;;;;;;;10.00;7.20;;;;;;;0.15;83.33;100757.31;105303;1267;61011;-86
2023/01/29 01:45:25;;;;;;;12.20;7.70;;;;;;;0.16;83.31;100758.85;105004;1268;72850;-86
2023/01/29 01:47:58;;;;;;;19.00;9.30;;;;;;;0.21;83.30;100760.14;105118;1269;64592;-85
2023/01/29 01:50:50;;;;;;;15.10;7.70;;;;;;;0.26;83.33;100761.80;105431;1260;73649;-84
2023/01/29 01:53:23;;;;;;;15.90;8.70;;;;;;;0.31;83.26;100762.91;105398;1260;60570;-84
2023/01/29 01:55:58;;;;;;;12.50;7.50;;;;;;;0.33;83.00;100763.75;105684;1257;60076;-84
2023/01/29 01:58:58;;;;;;;11.80;8.00;;;;;;;0.32;82.92;100758.08;105520;1262;72920;-84
2023/01/29 02:01:29;;;;;;;13.60;8.10;;;;;;;0.33;82.87;100758.59;105079;1267;64437;-85
2023/01/29 02:09:59;;;;;;;9.20;6.50;;;;;;;0.15;83.35;100763.52;105137;1263;61223;-83
2023/01/29 02:12:30;;;;;;;11.30;7.00;;;;;;;0.18;84.03;100763.79;105052;1263;73994;-84
2023/01/29 02:14:58;;;;;;;16.10;7.80;;;;;;;0.20;83.87;100756.89;105140;1265;65626;-85
2023/01/29 02:17:27;;;;;;;11.20;7.10;;;;;;;0.19;84.13;100753.30;105246;1263;73351;-84
2023/01/29 02:20:07;;;;;;;14.30;8.40;;;;;;;0.22;84.19;100752.23;105122;1263;59863;-84
2023/01/29 02:23:01;;;;;;;14.10;8.00;;;;;;;0.16;83.84;100749.73;105118;1263;60325;-84
2023/01/29 02:26:13;;;;;;;14.40;8.30;;;;;;;0.06;84.04;100749.71;105050;1263;74257;-85
2023/01/29 02:29:21;;;;;;;14.10;8.80;;;;;;;0.04;84.39;100752.48;105024;1263;63520;-85
2023/01/29 02:32:18;;;;;;;14.50;7.90;;;;;;;0.06;84.55;100748.18;105267;1264;73553;-85
2023/01/29 02:37:56;;;;;;;16.20;9.30;;;;;;;0.07;84.84;100750.21;105358;1254;61018;-87
2023/01/29 02:40:39;;;;;;;11.10;7.80;;;;;;;0.09;85.11;100751.04;105869;1254;74427;-84
2023/01/29 02:43:53;;;;;;;13.70;7.90;;;;;;;0.13;85.22;100752.02;105821;1254;64801;-84
2023/01/29 02:46:30;;;;;;;12.00;7.70;;;;;;;0.16;84.87;100754.38;105325;1261;73652;-82
2023/01/29 02:49:14;;;;;;;14.90;8.40;;;;;;;0.12;84.84;100753.40;105441;1262;59791;-83
2023/01/29 02:52:01;;;;;;;14.70;7.60;;;;;;;0.09;84.91;100758.44;105267;1265;60184;-85
2023/01/29 02:54:44;;;;;;;18.00;10.40;;;;;;;0.07;84.76;100757.61;105224;1260;74109;-85
2023/01/29 02:57:19;;;;;;;13.70;7.40;;;;;;;0.05;84.74;100757.13;105531;1265;64748;-83
2023/01/29 02:59:56;;;;;;;12.70;8.00;;;;;;;0.06;84.96;100756.59;105138;1263;73366;-85
2023/01/29 03:02:30;;;;;;;13.10;7.90;;;;;;;0.10;85.15;100757.21;105197;1265;62793;-84
2023/01/29 03:05:00;;;;;;;10.60;7.90;;;;;;;0.10;84.83;100756.00;105311;1265;60335;-84
2023/01/29 03:07:43;;;;;;;11.20;7.60;;;;;;;0.07;84.92;100753.83;105543;1265;73321;-88
2023/01/29 03:10:22;;;;;;;14.50;7.50;;;;;;;0.05;84.86;100750.93;105320;1263;64771;-85
2023/01/29 03:13:12;;;;;;;11.00;6.50;;;;;;;0.06;84.85;100755.90;105272;1265;73632;-85
2023/01/29 03:15:45;;;;;;;11.00;6.50;;;;;;;0.04;84.63;100751.97;105161;1267;60341;-86
2023/01/29 03:18:44;;;;;;;11.10;6.50;;;;;;;0.04;84.46;100756.10;105084;1264;59952;-88
2023/01/29 03:22:40;;;;;;;9.30;6.50;;;;;;;-0.04;84.32;100754.48;105671;1259;72059;-86
2023/01/29 03:33:04;;;;;;;8.70;6.70;;;;;;;-0.12;84.69;100761.31;105895;1254;61313;-85
2023/01/29 03:35:36;;;;;;;12.10;7.80;;;;;;;-0.16;84.72;100757.58;105738;1257;74161;-86
2023/01/29 03:38:08;;;;;;;11.60;7.40;;;;;;;-0.13;84.94;100756.69;105838;1254;63654;-85
2023/01/29 03:40:44;;;;;;;15.60;8.60;;;;;;;-0.12;84.52;100758.90;105746;1254;72437;-84
2023/01/29 03:43:34;;;;;;;11.60;7.10;;;;;;;-0.10;84.81;100756.98;105970;1254;59656;-86
2023/01/29 03:46:17;;;;;;;12.10;7.70;;;;;;;-0.10;84.42;100761.45;105886;1253;61597;-88
2023/01/29 03:48:49;;;;;;;9.40;7.10;;;;;;;-0.16;84.29;100760.17;105871;1259;73342;-83
2023/01/29 03:51:20;;;;;;;10.10;6.50;;;;;;;-0.18;84.49;100757.61;108318;1254;64805;-83
2023/01/29 03:54:56;;;;;;;11.90;7.40;;;;;;;-0.22;84.37;100760.59;109591;1254;72525;-86
2023/01/29 03:57:38;;;;;;;8.90;6.90;;;;;;;-0.21;84.62;100755.59;108007;1262;59422;-85
2023/01/29 04:00:20;;;;;;;9.70;6.80;;;;;;;-0.17;84.81;100755.70;106459;1262;61036;-84
2023/01/29 04:03:03;;;;;;;13.10;7.20;;;;;;;-0.08;84.95;100755.07;105734;1267;73798;-86
2023/01/29 04:05:41;;;;;;;12.20;8.80;;;;;;;0.02;84.72;100753.39;106049;1263;64521;-83
2023/01/29 04:08:26;;;;;;;10.00;6.60;;;;;;;0.08;84.29;100756.56;105318;1267;74489;-84
2023/01/29 04:10:56;;;;;;;13.30;7.80;;;;;;;0.05;84.00;100750.24;105966;1262;60503;-84
2023/01/29 04:13:24;;;;;;;13.50;8.40;;;;;;;0.05;83.90;100747.50;105425;1262;61648;-85
2023/01/29 04:15:57;;;;;;;14.10;8.50;;;;;;;0.09;83.97;100750.18;105133;1264;73837;-85
2023/01/29 04:18:46;;;;;;;8.90;7.20;;;;;;;0.14;83.95;100749.77;105264;1262;63870;-84
2023/01/29 04:21:15;;;;;;;10.90;7.20;;;;;;;0.17;83.88;100750.05;105229;1267;73616;-84
2023/01/29 04:23:43;;;;;;;10.80;6.50;;;;;;;0.20;83.60;100754.83;105141;1262;62484;-84
2023/01/29 04:26:44;;;;;;;10.30;7.00;;;;;;;0.20;83.45;100756.20;105121;1262;61091;-88
2023/01/29 04:29:24;;;;;;;11.20;7.10;;;;;;;0.18;83.41;100761.20;105134;1265;72164;-88
2023/01/29 04:32:37;;;;;;;11.30;6.80;;;;;;;0.17;83.44;100766.05;105422;1261;65457;-86
2023/01/29 04:35:28;;;;;;;10.10;6.80;;;;;;;0.15;83.33;100768.31;105373;1263;72478;-87
2023/01/29 04:38:08;;;;;;;10.80;6.60;;;;;;;0.12;83.25;100768.36;105308;1260;60638;-86
2023/01/29 04:40:46;;;;;;;9.50;7.00;;;;;;;0.09;83.28;100765.98;105360;1261;61066;-84
2023/01/29 04:43:24;;;;;;;10.80;7.20;;;;;;;0.04;83.18;100766.92;105316;1260;73611;-85
2023/01/29 04:46:12;;;;;;;11.30;7.10;;;;;;;-0.03;83.30;100766.52;105396;1261;63722;-88
2023/01/29 04:49:24;;;;;;;10.40;6.30;;;;;;;-0.11;83.70;100767.31;105471;1260;72407;-85
2023/01/29 04:52:30;;;;;;;12.00;6.80;;;;;;;-0.19;83.86;100770.52;105267;1260;61211;-86
2023/01/29 04:55:08;;;;;;;15.70;7.30;;;;;;;-0.22;84.58;100771.25;105300;1260;60927;-83
2023/01/29 04:57:50;;;;;;;10.10;6.40;;;;;;;-0.21;84.83;100773.78;105309;1261;72703;-84
2023/01/29 05:00:24;;;;;;;15.50;7.50;;;;;;;-0.22;85.11;100775.36;105202;1261;63592;-85
2023/01/29 05:02:53;;;;;;;11.40;6.80;;;;;;;-0.26;85.17;100771.98;105359;1260;72646;-83
2023/01/29 05:05:21;;;;;;;8.60;6.20;;;;;;;-0.28;85.33;100766.17;105306;1263;60868;-86
2023/01/29 05:07:50;;;;;;;10.20;6.90;;;;;;;-0.32;85.30;100766.73;106156;1253;61307;-86
2023/01/29 05:10:19;;;;;;;14.30;8.10;;;;;;;-0.39;85.61;100763.39;106045;1256;72075;-84
2023/01/29 05:12:50;;;;;;;11.30;7.20;;;;;;;-0.44;85.99;100762.92;105899;1256;64699;-85
2023/01/29 05:15:22;;;;;;;9.60;7.70;;;;;;;-0.44;86.30;100760.68;105859;1254;72674;-84
2023/01/29 05:17:52;;;;;;;8.90;6.70;;;;;;;-0.41;86.55;100758.08;105980;1254;60736;-84
2023/01/29 05:20:20;;;;;;;12.80;8.10;;;;;;;-0.38;86.78;100757.54;105903;1253;59865;-87
2023/01/29 05:22:48;;;;;;;12.10;7.20;;;;;;;-0.36;86.90;100758.02;106309;1254;73734;-85
2023/01/29 05:25:23;;;;;;;9.70;6.30;;;;;;;-0.34;86.77;100761.42;106195;1256;65092;-85
2023/01/29 05:28:12;;;;;;;;;;;;;;;-0.31;86.57;100762.06;106210;1254;72357;-86
2023/01/29 05:30:43;;;;;;;10.30;7.10;;;;;;;-0.28;86.60;100765.30;106206;1252;62172;-85
2023/01/29 05:33:16;;;;;;;10.80;7.00;;;;;;;-0.25;86.51;100769.73;106346;1253;60624;-84
2023/01/29 05:35:48;;;;;;;10.30;7.00;;;;;;;-0.22;86.63;100771.23;106219;1254;73429;-87
2023/01/29 05:38:17;;;;;;;11.10;7.80;;;;;;;-0.24;86.29;100774.00;105869;1254;63749;-87
2023/01/29 05:40:46;;;;;;;10.10;6.60;;;;;;;-0.27;86.32;100774.05;106012;1256;73867;-87
2023/01/29 05:43:25;;;;;;;12.10;6.90;;;;;;;-0.29;86.26;100779.75;106065;1256;60632;-87
2023/01/29 05:45:57;;;;;;;13.00;7.20;;;;;;;-0.31;86.20;100784.75;106094;1256;60276;-87
2023/01/29 05:48:31;;;;;;;12.20;6.70;;;;;;;-0.32;85.99;100782.20;106214;1256;72939;-86
2023/01/29 05:51:03;;;;;;;9.70;6.10;;;;;;;-0.36;85.92;100781.20;106406;1257;64505;-87
2023/01/29 05:53:35;;;;;;;7.80;5.80;;;;;;;-0.39;86.01;100787.94;106243;1254;73630;-86
2023/01/29 05:56:05;;;;;;;11.80;6.90;;;;;;;-0.39;86.24;100789.65;106319;1254;60842;-86
2023/01/29 05:58:34;;;;;;;10.40;6.60;;;;;;;-0.37;86.28;100791.86;106328;1254;61002;-86
2023/01/29 06:01:19;;;;;;;8.70;6.30;;;;;;;-0.36;86.14;100791.02;106226;1254;72953;-86
2023/01/29 06:03:47;;;;;;;8.20;6.60;;;;;;;-0.37;85.94;100789.64;106036;1256;64815;-86
2023/01/29 06:06:19;;;;;;;10.20;7.00;;;;;;;-0.36;85.90;100789.97;106108;1259;72834;-86
2023/01/29 06:08:48;;;;;;;10.80;7.20;;;;;;;-0.36;85.71;100790.15;106100;1252;62711;-85
2023/01/29 06:11:17;;;;;;;10.20;6.80;;;;;;;-0.37;85.48;100791.02;106374;1254;61023;-87
2023/01/29 06:13:46;;;;;;;11.70;7.30;;;;;;;-0.40;85.35;100793.27;106105;1256;73815;-86
2023/01/29 06:16:15;;;;;;;9.20;6.60;;;;;;;-0.42;85.22;100793.30;106065;1252;64210;-87
2023/01/29 06:18:43;;;;;;;14.60;6.80;;;;;;;-0.44;85.08;100794.86;105943;1254;73729;-84
2023/01/29 06:21:12;;;;;;;11.50;6.50;;;;;;;-0.45;84.93;100794.02;106081;1253;60552;-87
2023/01/29 06:23:42;;;;;;;10.50;6.60;;;;;;;-0.46;84.57;100795.08;107133;1254;61149;-84
2023/01/29 06:26:12;;;;;;;12.60;8.10;;;;;;;-0.47;84.32;100795.59;106751;1254;75027;-87
2023/01/29 06:28:41;;;;;;;9.70;7.40;;;;;;;-0.50;84.01;100794.95;106499;1256;65874;-84
2023/01/29 06:31:09;;;;;;;11.50;8.00;;;;;;;-0.55;83.90;100796.72;107249;1253;72348;-86
2023/01/29 06:33:57;;;;;;;10.00;6.90;;;;;;;-0.57;83.92;100796.40;106487;1256;60917;-86
2023/01/29 06:36:26;;;;;;;11.70;7.70;;;;;;;-0.58;83.87;100795.55;107132;1256;60345;-87
2023/01/29 06:38:57;;;;;;;10.00;7.50;;;;;;;-0.57;84.09;100798.98;106104;1255;74590;-87
2023/01/29 06:41:27;;;;;;;16.10;7.50;;;;;;;-0.55;84.10;100800.49;106304;1254;64758;-87
2023/01/29 06:43:55;;;;;;;11.50;8.00;;;;;;;-0.52;83.92;100798.06;106311;1254;73821;-86
2023/01/29 06:46:26;;;;;;;12.20;7.60;;;;;;;-0.50;83.92;100795.80;106281;1256;60825;-85
2023/01/29 06:48:58;;;;;;;12.90;7.10;;;;;;;-0.51;83.62;100797.70;106390;1256;61109;-86
2023/01/29 06:51:28;;;;;;;9.40;6.40;;;;;;;-0.58;83.71;100793.15;106402;1256;73521;-86
2023/01/29 06:53:56;;;;;;;15.60;8.50;;;;;;;-0.61;83.83;100802.97;106358;1259;63813;-86
2023/01/29 06:56:25;;;;;;;10.80;7.30;;;;;;;-0.58;84.22;100801.90;106174;1253;71814;-86
2023/01/29 06:58:53;;;;;;;12.00;7.90;;;;;;;-0.55;84.62;100799.48;106290;1253;63118;-88
2023/01/29 07:01:21;;;;;;;13.30;7.60;;;;;;;-0.50;84.80;100803.19;106515;1256;60451;-87
2023/01/29 07:04:04;;;;;;;12.30;7.00;;;;;;;-0.48;84.89;100797.84;109709;1253;73761;-86
2023/01/29 07:06:32;;;;;;;14.50;7.70;;;;;;;-0.49;84.94;100799.39;109349;1253;64280;-85
2023/01/29 07:09:02;;;;;;;12.20;8.10;;;;;;;-0.46;84.95;100799.00;107199;1256;72858;-86
2023/01/29 07:11:36;;;;;;;16.80;9.30;;;;;;;-0.42;84.97;100798.27;106679;1256;60447;-85
2023/01/29 10:50:35;;;;;;;22.20;13.10;;;;;;;0.11;82.79;100726.27;104274;1281;613444;-87
2023/01/29 10:53:21;;;;;;;19.30;11.90;;;;;;;0.32;82.06;100726.79;105945;1264;114636;-87
2023/01/29 10:56:01;;;;;;;22.40;13.30;;;;;;;0.39;81.52;100727.52;106884;1267;61328;-85
2023/01/29 10:58:42;;;;;;;20.20;13.30;;;;;;;0.47;81.20;100729.98;106523;1266;74220;-86
2023/01/29 11:01:11;;;;;;;23.80;13.70;;;;;;;0.54;80.81;100732.98;107809;1267;64265;-87
2023/01/29 11:03:38;;;;;;;27.00;15.30;;;;;;;0.56;80.36;100728.80;108620;1260;73473;-85
2023/01/29 11:06:17;;;;;;;37.60;22.60;;;;;;;0.56;79.67;100730.70;108688;1255;59222;-86
2023/01/29 11:09:13;;;;;;;24.50;16.50;;;;;;;0.49;79.22;100731.84;106382;1255;61333;-87
2023/01/29 11:11:42;;;;;;;22.90;14.60;;;;;;;0.44;79.32;100728.67;106255;1254;72954;-88
2023/01/29 11:14:37;;;;;;;26.90;16.30;;;;;;;0.39;79.43;100728.92;106370;1258;64886;-87
2023/01/29 11:17:03;;;;;;;36.20;20.50;;;;;;;0.36;79.68;100725.36;106288;1254;73472;-87
2023/01/29 11:19:42;;;;;;;31.40;15.60;;;;;;;0.38;80.03;100718.42;106351;1259;60897;-86
2023/01/29 11:22:14;;;;;;;23.90;15.00;;;;;;;0.43;80.20;100724.02;106505;1258;60831;-87
2023/01/29 11:24:42;;;;;;;24.20;16.20;;;;;;;0.46;80.07;100721.40;106191;1260;74355;-85
2023/01/29 11:27:32;;;;;;;21.20;13.60;;;;;;;0.45;80.05;100725.38;106279;1260;64798;-87
2023/01/29 11:29:59;;;;;;;27.60;14.70;;;;;;;0.41;80.16;100725.78;107105;1254;73568;-86
2023/01/29 11:32:31;;;;;;;19.90;13.10;;;;;;;0.43;80.24;100723.85;106620;1258;61016;-86
2023/01/29 11:35:02;;;;;;;23.70;13.10;;;;;;;0.44;80.04;100724.38;106492;1259;61382;-85
2023/01/29 11:37:36;;;;;;;20.40;12.20;;;;;;;0.42;80.44;100725.09;106674;1254;75349;-86
2023/01/29 11:40:18;;;;;;;22.30;14.30;;;;;;;0.41;80.49;100723.02;106612;1260;63970;-88
2023/01/29 11:42:45;;;;;;;20.00;13.10;;;;;;;0.45;80.82;100725.89;106170;1254;73546;-88
2023/01/29 11:45:21;;;;;;;20.20;13.40;;;;;;;0.48;80.45;100723.77;106454;1254;59752;-87
2023/01/29 11:47:52;;;;;;;25.90;14.60;;;;;;;0.47;80.07;100727.23;106607;1259;61349;-88
2023/01/29 11:50:32;;;;;;;26.70;14.50;;;;;;;0.42;80.04;100729.73;106365;1254;74022;-84
2023/01/29 11:52:59;;;;;;;27.40;14.80;;;;;;;0.35;79.97;100733.09;107034;1254;63743;-83
2023/01/29 11:55:27;;;;;;;27.50;14.00;;;;;;;0.34;80.05;100734.16;106544;1254;72690;-85
2023/01/29 11:58:11;;;;;;;23.40;15.30;;;;;;;0.36;80.18;100736.88;106645;1258;61794;-86
2023/01/29 12:00:38;;;;;;;22.20;13.50;;;;;;;0.37;80.43;100737.54;106642;1258;60245;-86
2023/01/29 12:03:14;;;;;;;28.40;16.80;;;;;;;0.37;80.61;100743.21;106199;1258;73349;-89
2023/01/29 12:05:53;;;;;;;43.00;24.60;;;;;;;0.36;80.46;100742.89;106238;1260;64855;-87
2023/01/29 12:08:22;;;;;;;93.40;53.50;;;;;;;0.36;80.28;100743.40;106253;1259;72638;-86
2023/01/29 12:10:49;;;;;;;25.80;16.40;;;;;;;0.30;79.97;100736.11;106377;1259;60372;-87
2023/01/29 12:13:26;;;;;;;38.20;20.30;;;;;;;0.22;80.22;100737.95;106322;1259;61063;-88
2023/01/29 12:16:17;;;;;;;48.10;27.70;;;;;;;0.17;80.37;100739.58;106590;1260;73004;-87
2023/01/29 12:18:52;;;;;;;32.20;17.40;;;;;;;0.13;80.59;100741.88;106197;1261;65327;-87
2023/01/29 12:21:45;;;;;;;36.80;21.30;;;;;;;0.08;80.55;100738.50;106055;1260;73581;-86
2023/01/29 12:24:24;;;;;;;26.00;14.90;;;;;;;0.05;80.62;100744.23;106455;1260;61091;-87
2023/01/29 12:27:00;;;;;;;26.10;15.50;;;;;;;0.09;80.81;100743.65;106626;1258;61029;-88
2023/01/29 12:29:30;;;;;;;23.70;15.40;;;;;;;0.10;80.77;100745.17;107137;1257;73001;-88
2023/01/29 12:32:00;;;;;;;25.70;15.40;;;;;;;0.11;80.90;100745.34;106676;1254;64549;-87
2023/01/29 12:35:01;;;;;;;19.60;12.20;;;;;;;0.14;80.82;100745.48;106404;1259;73657;-88
2023/01/29 12:37:34;;;;;;;22.60;13.20;;;;;;;0.16;80.56;100745.61;106205;1257;60698;-88
2023/01/29 12:40:16;;;;;;;23.80;13.60;;;;;;;0.17;80.44;100746.45;106491;1257;59746;-87
2023/01/29 12:42:49;;;;;;;33.20;16.50;;;;;;;0.15;80.43;100746.48;106538;1254;72960;-87
2023/01/29 12:45:20;;;;;;;24.90;15.00;;;;;;;0.13;80.25;100747.73;106408;1258;63980;-88
2023/01/29 12:47:54;;;;;;;30.70;19.40;;;;;;;0.07;80.33;100747.11;106329;1260;72507;-87
2023/01/29 12:50:42;;;;;;;23.50;13.10;;;;;;;0.04;80.47;100749.74;106872;1258;62007;-87
2023/01/29 12:53:18;;;;;;;21.80;13.80;;;;;;;0.05;80.44;100752.82;106749;1254;61123;-87
2023/01/29 12:55:47;;;;;;;18.80;12.30;;;;;;;0.06;80.82;100751.27;106528;1254;73927;-85
2023/01/29 12:58:16;;;;;;;20.70;12.40;;;;;;;0.11;80.70;100751.70;106618;1266;64991;-86
2023/01/29 13:00:45;;;;;;;19.50;11.20;;;;;;;0.14;80.61;100754.92;106756;1257;73584;-86
2023/01/29 13:03:16;;;;;;;24.30;13.90;;;;;;;0.15;80.60;100755.77;106607;1257;60598;-87
2023/01/29 13:05:51;;;;;;;28.30;16.60;;;;;;;0.15;80.52;100758.88;106382;1259;60193;-87
2023/01/29 13:08:20;;;;;;;27.50;14.60;;;;;;;0.12;80.55;100762.17;106465;1257;74344;-87
2023/01/29 13:10:52;;;;;;;20.20;12.80;;;;;;;0.08;80.44;100765.48;106447;1260;63540;-87
2023/01/29 13:13:31;;;;;;;24.70;14.10;;;;;;;0.04;80.63;100770.73;106768;1257;73391;-86
2023/01/29 13:15:59;;;;;;;20.40;12.50;;;;;;;-0.04;80.50;100770.98;107128;1256;62292;-87
2023/01/29 13:18:35;;;;;;;18.20;11.50;;;;;;;-0.09;80.62;100775.88;106867;1254;61174;-86
2023/01/29 13:21:04;;;;;;;20.80;12.70;;;;;;;-0.10;81.14;100776.92;107076;1258;73058;-87
2023/01/29 13:23:42;;;;;;;22.40;12.60;;;;;;;-0.09;81.32;100780.68;105867;1260;64838;-87
2023/01/29 13:26:09;;;;;;;21.00;13.40;;;;;;;-0.10;81.02;100781.73;105978;1258;72416;-88
2023/01/29 13:28:41;;;;;;;18.50;11.50;;;;;;;-0.12;81.06;100778.32;106141;1258;59500;-87
2023/01/29 13:31:33;;;;;;;21.10;12.50;;;;;;;-0.15;81.12;100776.64;106832;1259;62003;-87
2023/01/29 13:34:24;;;;;;;23.20;12.60;;;;;;;-0.16;81.12;100779.75;107723;1253;71647;-88
2023/01/29 13:36:56;;;;;;;19.10;11.70;;;;;;;-0.16;81.01;100776.65;106602;1256;63952;-87
2023/01/29 13:39:28;;;;;;;19.50;12.40;;;;;;;-0.16;81.22;100786.78;106603;1259;72749;-86
2023/01/29 13:41:56;;;;;;;20.90;10.90;;;;;;;-0.16;81.31;100780.44;106721;1254;62632;-88
2023/01/29 13:44:24;;;;;;;18.50;11.90;;;;;;;-0.16;81.03;100782.50;106154;1254;61193;-89
2023/01/29 13:47:02;;;;;;;18.40;11.40;;;;;;;-0.17;81.22;100784.76;106512;1254;73959;-86
2023/01/29 13:49:40;;;;;;;21.60;12.10;;;;;;;-0.19;81.08;100789.91;106296;1254;64446;-87
2023/01/29 13:52:13;;;;;;;17.40;12.60;;;;;;;-0.17;81.09;100786.98;106308;1257;72856;-85
2023/01/29 13:55:15;;;;;;;18.30;13.00;;;;;;;-0.17;81.25;100791.79;106280;1253;60481;-87
2023/01/29 13:57:49;;;;;;;20.10;12.50;;;;;;;-0.18;81.15;100792.66;106285;1255;60798;-87
2023/01/29 14:00:29;;;;;;;20.60;12.60;;;;;;;-0.18;81.23;100800.73;106144;1255;73728;-87
2023/01/29 14:02:59;;;;;;;21.40;12.30;;;;;;;-0.17;81.15;100801.07;106061;1266;64754;-88
2023/01/29 14:05:29;;;;;;;19.60;12.20;;;;;;;-0.18;81.23;100795.56;106434;1254;73502;-87
2023/01/29 14:07:58;;;;;;;20.10;12.70;;;;;;;-0.19;81.34;100796.45;106075;1257;60887;-87
2023/01/29 14:10:29;;;;;;;21.00;13.70;;;;;;;-0.20;81.44;100800.24;106056;1258;61252;-87
2023/01/29 14:13:18;;;;;;;22.20;12.80;;;;;;;-0.14;81.51;100802.59;106460;1260;73857;-89
2023/01/29 14:15:48;;;;;;;17.00;11.70;;;;;;;-0.16;81.38;100803.81;105911;1256;63923;-88
2023/01/29 14:18:20;;;;;;;22.90;13.60;;;;;;;-0.18;81.62;100805.88;105838;1259;73638;-87
2023/01/29 14:20:46;;;;;;;20.20;12.40;;;;;;;-0.20;81.62;100804.38;105949;1254;60956;-89
2023/01/29 14:23:34;;;;;;;21.50;12.50;;;;;;;-0.20;81.77;100807.12;105950;1254;59794;-88
2023/01/29 14:26:04;;;;;;;20.40;13.20;;;;;;;-0.20;82.10;100805.41;106024;1256;74585;-88
2023/01/29 14:28:32;;;;;;;19.50;11.50;;;;;;;-0.18;82.25;100810.19;106260;1254;63701;-87
2023/01/29 14:31:02;;;;;;;17.80;12.30;;;;;;;-0.17;82.36;100810.52;106286;1253;73504;-88
2023/01/29 14:33:31;;;;;;;34.90;21.00;;;;;;;-0.17;82.26;100811.21;106276;1254;60285;-85
2023/01/29 14:35:58;;;;;;;16.80;12.20;;;;;;;-0.17;82.32;100814.48;105947;1253;60317;-87
2023/01/29 14:38:26;;;;;;;21.30;14.70;;;;;;;-0.16;82.23;100818.40;106011;1254;73760;-87
2023/01/29 14:41:12;;;;;;;50.40;28.20;;;;;;;-0.16;82.26;100817.88;106024;1254;63815;-88
2023/01/29 14:43:39;;;;;;;23.50;13.50;;;;;;;-0.21;82.08;100825.34;105948;1260;73419;-88
2023/01/29 14:46:34;;;;;;;21.10;12.80;;;;;;;-0.24;82.18;100827.96;106044;1257;61860;-88
2023/01/29 14:49:01;;;;;;;27.10;17.60;;;;;;;-0.25;82.34;100827.10;106048;1254;61379;-89
2023/01/29 14:51:33;;;;;;;29.80;16.50;;;;;;;-0.28;82.52;100828.52;105887;1254;73912;-87
2023/01/29 14:54:03;;;;;;;19.40;12.70;;;;;;;-0.28;82.74;100831.80;106002;1257;64698;-87
2023/01/29 14:56:39;;;;;;;21.00;13.10;;;;;;;-0.25;82.81;100830.20;106289;1254;73386;-87
2023/01/29 14:59:16;;;;;;;19.30;13.40;;;;;;;-0.25;82.77;100835.02;106573;1254;59816;-87
2023/01/29 15:01:51;;;;;;;25.60;14.70;;;;;;;-0.25;82.99;100841.03;106712;1257;60374;-85
2023/01/29 15:04:24;;;;;;;;;;;;;;;-0.26;82.97;100842.41;107594;1254;71857;-86
2023/01/29 15:06:54;;;;;;;18.40;13.60;;;;;;;-0.27;82.87;100845.86;107709;1254;64895;-87
2023/01/29 15:09:27;;;;;;;23.90;14.00;;;;;;;-0.30;83.16;100845.38;106496;1258;73465;-86
2023/01/29 15:12:32;;;;;;;18.70;13.40;;;;;;;-0.33;83.22;100841.81;106117;1254;61143;-86
2023/01/29 15:15:02;;;;;;;20.60;14.00;;;;;;;-0.35;83.53;100839.09;105986;1257;61394;-87
2023/01/29 15:17:42;;;;;;;18.80;12.50;;;;;;;-0.34;83.70;100838.04;105912;1258;74864;-88
2023/01/29 15:20:26;;;;;;;20.70;13.80;;;;;;;-0.36;83.86;100833.92;106169;1255;64854;-85
2023/01/29 15:22:53;;;;;;;23.80;13.80;;;;;;;-0.35;84.12;100834.11;106773;1254;74228;-87
2023/01/29 15:25:21;;;;;;;20.90;14.30;;;;;;;-0.34;83.83;100831.35;107590;1257;60486;-86
2023/01/29 15:27:47;;;;;;;22.20;15.60;;;;;;;-0.36;83.71;100833.25;108221;1254;61142;-88
2023/01/29 15:30:17;;;;;;;20.80;14.40;;;;;;;-0.39;83.75;100832.42;109299;1253;73813;-85
2023/01/29 15:32:44;;;;;;;24.20;15.70;;;;;;;-0.41;83.87;100832.10;108987;1253;64179;-87
2023/01/29 15:35:29;;;;;;;25.30;14.50;;;;;;;-0.42;83.89;100834.00;106821;1257;73854;-88
2023/01/29 15:38:19;;;;;;;68.40;37.40;;;;;;;-0.44;83.91;100832.83;106586;1257;62053;-88
2023/01/29 15:41:00;;;;;;;24.40;14.50;;;;;;;-0.46;84.37;100830.10;106682;1253;61280;-87
2023/01/29 15:43:34;;;;;;;20.70;14.30;;;;;;;-0.43;84.60;100831.27;107287;1254;74119;-87
2023/01/29 15:46:24;;;;;;;24.20;13.90;;;;;;;-0.40;84.73;100836.22;106799;1254;64975;-87
2023/01/29 15:48:53;;;;;;;22.80;14.30;;;;;;;-0.37;84.65;100840.80;106494;1257;73246;-88
2023/01/29 15:51:22;;;;;;;21.80;14.40;;;;;;;-0.37;84.44;100835.50;105984;1257;61053;-88
2023/01/29 15:54:00;;;;;;;24.00;15.10;;;;;;;-0.38;84.41;100836.71;106089;1254;61208;-88
2023/01/29 15:56:33;;;;;;;25.40;15.30;;;;;;;-0.39;84.45;100841.70;106297;1256;73673;-87
2023/01/29 15:59:02;;;;;;;21.60;13.80;;;;;;;-0.42;84.37;100841.56;106155;1257;62996;-88
2023/01/29 16:01:32;;;;;;;19.90;13.20;;;;;;;-0.43;84.38;100843.28;106556;1258;73346;-88
2023/01/29 16:04:01;;;;;;;21.90;13.70;;;;;;;-0.43;84.33;100843.29;106060;1257;60875;-86
2023/01/29 16:06:38;;;;;;;19.80;13.70;;;;;;;-0.40;84.25;100847.21;106293;1254;61322;-87
2023/01/29 19:57:53;;;;;;;12.50;7.70;;;;;;;-1.45;76.63;100904.56;104261;1279;616209;-87
2023/01/29 20:00:21;;;;;;;14.00;7.60;;;;;;;-1.23;76.09;100902.02;104903;1269;112820;-87
2023/01/29 20:02:53;;;;;;;10.00;7.10;;;;;;;-1.20;75.40;100900.98;105146;1263;61251;-86
2023/01/29 20:05:20;;;;;;;10.90;7.20;;;;;;;-1.19;75.16;100905.78;105482;1263;73282;-87
2023/01/29 20:07:48;;;;;;;9.80;7.40;;;;;;;-1.19;74.86;100900.80;105599;1266;64561;-87
2023/01/29 20:10:16;;;;;;;11.40;7.90;;;;;;;-1.20;74.89;100903.55;105364;1263;73992;-87
2023/01/29 20:12:44;;;;;;;10.40;7.50;;;;;;;-1.19;74.73;100901.32;105320;1263;62760;-86
2023/01/29 20:15:14;;;;;;;11.30;6.90;;;;;;;-1.16;74.83;100899.05;105179;1267;61297;-89
2023/01/29 20:17:42;;;;;;;9.30;7.60;;;;;;;-1.15;74.90;100898.36;105229;1267;72005;-87
2023/01/29 20:20:09;;;;;;;12.40;8.10;;;;;;;-1.13;74.73;100900.92;105081;1263;63748;-87
2023/01/29 20:22:36;;;;;;;11.70;7.50;;;;;;;-1.13;74.55;100899.04;105103;1263;73516;-87
2023/01/29 20:25:06;;;;;;;10.40;6.70;;;;;;;-1.11;74.25;100893.55;105113;1263;60358;-88
2023/01/29 20:27:35;;;;;;;9.90;6.50;;;;;;;-1.15;73.95;100893.39;105172;1263;61412;-89
2023/01/29 20:30:03;;;;;;;11.20;7.70;;;;;;;-1.21;73.55;100898.92;105347;1263;73564;-87
2023/01/29 20:32:31;;;;;;;13.40;8.80;;;;;;;-1.28;73.73;100896.90;105146;1266;64986;-87
2023/01/29 20:34:58;;;;;;;13.50;7.00;;;;;;;-1.32;73.80;100894.38;105813;1259;73531;-87
2023/01/29 20:37:25;;;;;;;11.10;7.10;;;;;;;-1.40;73.53;100893.56;105745;1255;60364;-86
2023/01/29 20:39:53;;;;;;;10.80;7.20;;;;;;;-1.46;73.79;100897.02;105720;1254;61310;-86
2023/01/29 20:42:21;;;;;;;10.10;7.30;;;;;;;-1.48;74.18;100902.88;105706;1256;74134;-87
2023/01/29 20:44:48;;;;;;;8.90;6.60;;;;;;;-1.48;74.10;100902.70;105843;1254;64964;-88
2023/01/29 20:47:15;;;;;;;8.60;7.00;;;;;;;-1.44;74.44;100897.36;105751;1255;73616;-87
2023/01/29 20:49:42;;;;;;;9.10;7.00;;;;;;;-1.41;74.24;100899.90;105745;1258;60356;-86
2023/01/29 20:52:09;;;;;;;10.60;6.80;;;;;;;-1.42;74.05;100900.42;105828;1254;60259;-88
2023/01/29 20:54:36;;;;;;;14.10;6.30;;;;;;;-1.41;73.88;100904.04;105791;1254;73995;-87
2023/01/29 20:57:03;;;;;;;10.00;6.60;;;;;;;-1.42;73.60;100905.74;105744;1258;65150;-87
2023/01/29 20:59:30;;;;;;;9.90;7.20;;;;;;;-1.47;73.65;100906.63;105814;1259;73959;-86
2023/01/29 21:01:57;;;;;;;11.60;8.40;;;;;;;-1.52;73.69;100909.24;105732;1259;59740;-88
2023/01/29 21:04:30;;;;;;;11.10;7.80;;;;;;;-1.58;73.64;100908.08;105852;1254;61768;-87
2023/01/29 21:06:57;;;;;;;12.40;7.70;;;;;;;-1.65;73.63;100914.29;105849;1259;73909;-86